메인 페이지
METAR-TAF:

METAR-TAF

공항 :

이바라키 공항, 일본

위도: 36-11N, 경도: 140-25E, 고도: 32m

현재 날씨관측

예보는 1 시간 7분 전, 01:00시(UTC)에 발표되었습니다.
여러 방향의 바람 2kt
온도 29°C
습도 48%
기압 1011 hPa
시정 10km 이상
고도 2000ft 상공 구름 조금

METAR: RJAH 250100Z VRB02KT 9999 FEW020 29/17 Q1011

시각: 11:07 (02:07 UTC)

예보

예보는 3 시간 2분 전, 23:05시(UTC)에 발표되었습니다.
예보 대상 시간: 25일 00시부터 26일 06시까지 (UTC)
남남동5kt
시정 10km 이상
고도 3000ft 상공 구름 조금
전환 중
25일 06시부터 25일 08시까지 (UTC)
동북동10kt
일시적
25일 12시부터 25일 15시까지 (UTC)
고도 500ft 상공 구름 조금
고도 800ft 상공 구름 많음
일시적
25일 15시부터 25일 21시까지 (UTC)
시정: 4000m
고도 200ft 상공 구름 조금
고도 500ft 상공 구름 많음
박무
전환 중
26일 00시부터 26일 03시까지 (UTC)
10kt

TAF: RJAH 242305Z 2500/2606 16005KT 9999 FEW030 BECMG 2506/2508 06010KT TEMPO 2512/2515 FEW005 BKN008 TEMPO 2515/2521 4000 BR FEW002 BKN005 BECMG 2600/2603 18010KT

4,000개 이상의 공항 관측 자료 및 예보 (METAR 및 TAF 보고).

지도상에서 검색 가능한 기상관측소가 노란 점과 빨간 점으로 표시되어 있습니다.

기상관측소 명을 보려면 표시 위로 마우스를 이동하세요.

날씨 관측과 예보를 보려면 클릭하세요.

지도 변경 : 확대하려면 엑스 표시가 있는 녹색 버튼, 축소하려면 빼기 표시가 있는 녹색 버튼, 다음 페이지의 지도를 보려면 녹색 화살표를 클릭하세요.


METAR-TAF: